Winston, New Mexico
Current Conditions -  °F | °C
As of 10:53 PM on Friday 28 Nov 2014 (Local Time) from KTCS Reporting Station
Clear Clear  
Wind Chill: 36°   Ceiling: Unl
Heat Index: 40°   Visibility: 10mi
Dew Point: 19°   Wind: 6mph
Humidity: 43%   Direction: 260°W
Pressure: 30.08"   Gusts: NA
Location:  33.33°N, 107.65°W
Report Text: KTCS 290553Z AUTO 26005KT 10SM CLR 04/M07 A3008 RMK AO2 SLP154 T00441072 10178 20044 50000 TSNO
Loading
Personal Weather Stations






























Interactive Weather Map New forecast layout! Learn more

10-Day Weather Forecast

Advertisements
Track Severe Weather on mobile